Aeroporto :
LOGIN :

Iscrizione | Disclaimer

   EN    FR    IT 

 










Sommario :    VFR   VFR Marginale   IFR   IFR Intensivo   IFR Molto Intensivo
Visibilità : 
Base nubi : 
>= 8 km
>= 3000ft
5 / 8 km
1000 / 3000 ft
1500m / 5 km
500 / 1000 ft
800 / 1500m
200 / 500 ft
< 800m
< 200 ft
Simboli :   Temporali  Nebbia  Neve Forte  Precipitazioni Forti  Vento > 20 kt
SIGMETs :   Varie  Temporali  Ghiacco  Turbolenza  Onda orograficha  Ceneri Vulcaniche







- Altitudine del aeroporto : 144 ft
- Codice IATA : PGF
- Carte del aeroporto


LFMP - Perpignan

ULTIMO METAR :
  • 261130Z AUTO 32021KT 9999 NCD 21/10 Q1016 TEMPO 32030G40KT

METARs OBSOLETI :
  • 261100Z AUTO 31024G36KT 9999 NCD 20/09 Q1016 NOSIG
  • 261030Z AUTO 31026G38KT 9999 NCD 19/09 Q1016 NOSIG
  • 261000Z AUTO 31025G39KT 9999 NCD 18/09 Q1016 NOSIG
  • 260930Z AUTO 31021G33KT 9999 NCD 19/09 Q1016 NOSIG
  • 260900Z AUTO 30022G35KT 9999 NCD 18/09 Q1017 NOSIG

TAF TAF LFMP
Valido dal 26 a 09 ore il 27 a 09 ore UTC


260800Z 2609/2709 32015KT CAVOK
TEMPO 2609/2709 32025G35KT
PROB40
TEMPO 2609/2709 32030G40KT
ATIS : +33 4 68 63 75 12
Nessun NOTAM noto per questo aeroporto.
2 SIGMETs conosciuti per la FIR Marseille (LFMM) :
 
Turbolenza severa
LFMM SIGMET 4 VALID 261045/261300 LFPW
LFMM MARSEILLE FIR/UIR SEV TURB OBS AT 1045Z S OF N4330 AND W OF E00315 SFC/FL040 STNR NC=
Turbolenza severa
LFMM SIGMET 3 VALID 261100/261500 LFPW
LFMM MARSEILLE FIR/UIR SEV TURB FCST WI N3900 E00545 - N3900 E00430 - N4200 E00430 - N4630 E00600 - N4630 E00700 - N4415 E00700 - N3900 E00545 FL240/320 STNR NC=



MetMap, La meteo Aeronautica in un colpo d'occhio ! - Copyright ORBIFLY Dicembre 2007 - Disclaimer

ORBIFLY MET'MAP TEAM :

Programmazione e sviluppo : Alexandra Zaïnal
Concezione e sviluppo : Baudouin d'Aumeries
Co-Programmazione e sviluppo : Marc-Olivier Méhu
Supporto tecnico e logistico : Manuel Goepfert
Aiuto per la traduzione : Arnaldo La Scala

Contatto : metmap@orbifly.com




FONTI E CREDITI :

   NOAA